sensor_id;sensor_type;location;lat;lon;timestamp;pressure;altitude;pressure_sealevel;temperature;humidity
31096;BME280;17749;51.962;8.560;2023-04-26T05:00:35;100262.06;;;-0.36;100.00
31096;BME280;17749;51.962;8.560;2023-04-26T05:03:16;100259.47;;;-0.33;100.00
31096;BME280;17749;51.962;8.560;2023-04-26T05:05:43;100262.97;;;-0.27;100.00
31096;BME280;17749;51.962;8.560;2023-04-26T05:08:11;100260.38;;;-0.28;100.00
31096;BME280;17749;51.962;8.560;2023-04-26T05:10:38;100265.63;;;-0.25;100.00
31096;BME280;17749;51.962;8.560;2023-04-26T05:13:05;100263.91;;;-0.23;100.00
31096;BME280;17749;51.962;8.560;2023-04-26T05:15:33;100269.16;;;-0.17;100.00
31096;BME280;17749;51.962;8.560;2023-04-26T05:18:00;100275.28;;;-0.12;100.00
31096;BME280;17749;51.962;8.560;2023-04-26T05:20:27;100271.84;;;-0.08;100.00
31096;BME280;17749;51.962;8.560;2023-04-26T05:22:55;100277.09;;;-0.03;100.00
31096;BME280;17749;51.962;8.560;2023-04-26T05:25:22;100281.47;;;-0.01;100.00
31096;BME280;17749;51.962;8.560;2023-04-26T05:27:54;100272.75;;;0.05;100.00
31096;BME280;17749;51.962;8.560;2023-04-26T05:30:30;100278.09;;;0.16;100.00
31096;BME280;17749;51.962;8.560;2023-04-26T05:33:19;100285.06;;;0.14;100.00
31096;BME280;17749;51.962;8.560;2023-04-26T05:35:54;100287.69;;;0.20;100.00
31096;BME280;17749;51.962;8.560;2023-04-26T05:38:24;100284.22;;;0.29;100.00
31096;BME280;17749;51.962;8.560;2023-04-26T05:40:51;100277.31;;;0.37;100.00
31096;BME280;17749;51.962;8.560;2023-04-26T05:43:18;100281.69;;;0.42;100.00
31096;BME280;17749;51.962;8.560;2023-04-26T05:45:55;100283.44;;;0.50;100.00
31096;BME280;17749;51.962;8.560;2023-04-26T05:48:24;100286.94;;;0.55;100.00
31096;BME280;17749;51.962;8.560;2023-04-26T05:50:52;100294.00;;;0.63;100.00
31096;BME280;17749;51.962;8.560;2023-04-26T05:53:19;100292.25;;;0.70;100.00
31096;BME280;17749;51.962;8.560;2023-04-26T05:55:46;100294.03;;;0.77;100.00
31096;BME280;17749;51.962;8.560;2023-04-26T05:58:14;100294.06;;;0.86;100.00
31096;BME280;17749;51.962;8.560;2023-04-26T06:00:41;100281.84;;;0.95;100.00
31096;BME280;17749;51.962;8.560;2023-04-26T06:03:08;100294.09;;;1.14;100.00
31096;BME280;17749;51.962;8.560;2023-04-26T06:05:36;100298.47;;;1.35;100.00
31096;BME280;17749;51.962;8.560;2023-04-26T06:08:06;100294.97;;;1.54;100.00
31096;BME280;17749;51.962;8.560;2023-04-26T06:10:34;100297.59;;;1.74;100.00
31096;BME280;17749;51.962;8.560;2023-04-26T06:13:02;100305.44;;;1.97;100.00
31096;BME280;17749;51.962;8.560;2023-04-26T06:15:32;100300.16;;;2.14;100.00
31096;BME280;17749;51.962;8.560;2023-04-26T06:18:00;100305.34;;;2.39;100.00
31096;BME280;17749;51.962;8.560;2023-04-26T06:20:27;100304.34;;;2.61;100.00
31096;BME280;17749;51.962;8.560;2023-04-26T06:22:54;100308.63;;;2.85;100.00
31096;BME280;17749;51.962;8.560;2023-04-26T06:25:21;100300.59;;;3.08;100.00
31096;BME280;17749;51.962;8.560;2023-04-26T06:27:48;100306.53;;;3.35;100.00
31096;BME280;17749;51.962;8.560;2023-04-26T06:30:15;100313.31;;;3.68;100.00
31096;BME280;17749;51.962;8.560;2023-04-26T06:32:45;100318.34;;;3.94;100.00
31096;BME280;17749;51.962;8.560;2023-04-26T06:35:13;100315.47;;;4.16;100.00
31096;BME280;17749;51.962;8.560;2023-04-26T06:37:40;100318.75;;;4.41;100.00
31096;BME280;17749;51.962;8.560;2023-04-26T06:40:08;100321.97;;;4.63;100.00
31096;BME280;17749;51.962;8.560;2023-04-26T06:42:36;100314.75;;;4.80;100.00
31096;BME280;17749;51.962;8.560;2023-04-26T06:45:22;100312.75;;;4.96;100.00
31096;BME280;17749;51.962;8.560;2023-04-26T06:47:52;100321.22;;;5.20;100.00
31096;BME280;17749;51.962;8.560;2023-04-26T06:50:22;100323.47;;;5.44;100.00
31096;BME280;17749;51.962;8.560;2023-04-26T06:52:49;100321.34;;;5.68;100.00
31096;BME280;17749;51.962;8.560;2023-04-26T06:55:17;100316.44;;;5.99;100.00
31096;BME280;17749;51.962;8.560;2023-04-26T06:57:44;100314.81;;;6.40;100.00
31096;BME280;17749;51.962;8.560;2023-04-26T07:00:12;100305.34;;;6.70;100.00
31096;BME280;17749;51.962;8.560;2023-04-26T07:02:39;100303.16;;;6.91;100.00
31096;BME280;17749;51.962;8.560;2023-04-26T07:05:07;100307.25;;;7.06;100.00
31096;BME280;17749;51.962;8.560;2023-04-26T07:07:34;100309.66;;;7.16;100.00
31096;BME280;17749;51.962;8.560;2023-04-26T07:10:02;100311.25;;;7.61;100.00
31096;BME280;17749;51.962;8.560;2023-04-26T07:12:29;100316.00;;;7.82;100.00
31096;BME280;17749;51.962;8.560;2023-04-26T07:14:57;100310.41;;;7.95;100.00
31096;BME280;17749;51.962;8.560;2023-04-26T07:17:24;100318.75;;;8.12;100.00
31096;BME280;17749;51.962;8.560;2023-04-26T07:19:50;100314.16;;;8.53;100.00
31096;BME280;17749;51.962;8.560;2023-04-26T07:22:19;100316.28;;;8.71;100.00
31096;BME280;17749;51.962;8.560;2023-04-26T07:24:46;100314.53;;;8.70;100.00
31096;BME280;17749;51.962;8.560;2023-04-26T07:27:13;100312.03;;;8.64;100.00
31096;BME280;17749;51.962;8.560;2023-04-26T07:29:40;100319.03;;;8.68;100.00
31096;BME280;17749;51.962;8.560;2023-04-26T07:32:07;100322.50;;;8.70;100.00
31096;BME280;17749;51.962;8.560;2023-04-26T07:34:34;100318.81;;;8.76;100.00
31096;BME280;17749;51.962;8.560;2023-04-26T07:37:01;100316.88;;;8.81;100.00
31096;BME280;17749;51.962;8.560;2023-04-26T07:39:28;100310.09;;;9.00;100.00
31096;BME280;17749;51.962;8.560;2023-04-26T07:41:55;100312.38;;;9.41;100.00
31096;BME280;17749;51.962;8.560;2023-04-26T07:44:22;100314.13;;;9.69;100.00
31096;BME280;17749;51.962;8.560;2023-04-26T07:46:49;100313.94;;;9.75;100.00
31096;BME280;17749;51.962;8.560;2023-04-26T07:49:16;100311.47;;;9.95;100.00
31096;BME280;17749;51.962;8.560;2023-04-26T07:51:43;100312.41;;;9.94;100.00
31096;BME280;17749;51.962;8.560;2023-04-26T07:54:10;100307.19;;;9.91;100.00
31096;BME280;17749;51.962;8.560;2023-04-26T07:56:37;100308.00;;;9.93;100.00
31096;BME280;17749;51.962;8.560;2023-04-26T07:59:04;100312.00;;;9.80;100.00
31096;BME280;17749;51.962;8.560;2023-04-26T08:01:31;100305.88;;;9.78;100.00
31096;BME280;17749;51.962;8.560;2023-04-26T08:03:58;100304.81;;;9.82;100.00
31096;BME280;17749;51.962;8.560;2023-04-26T08:06:26;100305.16;;;9.73;100.00
31096;BME280;17749;51.962;8.560;2023-04-26T08:08:54;100305.41;;;9.65;100.00
31096;BME280;17749;51.962;8.560;2023-04-26T08:11:21;100308.34;;;10.09;100.00
31096;BME280;17749;51.962;8.560;2023-04-26T08:13:49;100298.88;;;10.50;100.00
31096;BME280;17749;51.962;8.560;2023-04-26T08:16:16;100292.09;;;10.90;100.00
31096;BME280;17749;51.962;8.560;2023-04-26T08:18:43;100300.19;;;11.11;100.00
31096;BME280;17749;51.962;8.560;2023-04-26T08:21:12;100299.38;;;10.85;100.00
31096;BME280;17749;51.962;8.560;2023-04-26T08:23:39;100303.31;;;10.75;100.00
31096;BME280;17749;51.962;8.560;2023-04-26T08:26:06;100307.44;;;10.84;100.00
31096;BME280;17749;51.962;8.560;2023-04-26T08:28:33;100305.28;;;10.70;100.00
31096;BME280;17749;51.962;8.560;2023-04-26T08:31:01;100299.03;;;10.71;100.00
31096;BME280;17749;51.962;8.560;2023-04-26T08:33:28;100291.69;;;10.78;100.00
31096;BME280;17749;51.962;8.560;2023-04-26T08:35:58;100295.34;;;10.75;100.00
31096;BME280;17749;51.962;8.560;2023-04-26T08:38:25;100296.38;;;10.71;100.00
31096;BME280;17749;51.962;8.560;2023-04-26T08:40:53;100294.97;;;10.61;100.00
31096;BME280;17749;51.962;8.560;2023-04-26T08:43:21;100288.03;;;10.80;100.00
31096;BME280;17749;51.962;8.560;2023-04-26T08:45:49;100294.81;;;10.89;100.00
31096;BME280;17749;51.962;8.560;2023-04-26T08:48:16;100289.53;;;10.87;100.00
31096;BME280;17749;51.962;8.560;2023-04-26T08:50:44;100284.50;;;10.80;96.10
31096;BME280;17749;51.962;8.560;2023-04-26T08:53:15;100284.41;;;11.05;99.37
31096;BME280;17749;51.962;8.560;2023-04-26T08:55:49;100288.88;;;11.26;97.33
31096;BME280;17749;51.962;8.560;2023-04-26T08:58:17;100288.16;;;11.45;97.03
31096;BME280;17749;51.962;8.560;2023-04-26T09:00:45;100282.81;;;11.45;93.34
31096;BME280;17749;51.962;8.560;2023-04-26T09:03:12;100277.88;;;11.35;94.03
31096;BME280;17749;51.962;8.560;2023-04-26T09:05:39;100289.00;;;11.23;91.48
31096;BME280;17749;51.962;8.560;2023-04-26T09:08:15;100288.03;;;11.04;93.18
31096;BME280;17749;51.962;8.560;2023-04-26T09:10:46;100278.78;;;10.90;92.78
31096;BME280;17749;51.962;8.560;2023-04-26T09:13:13;100285.38;;;10.80;92.12
31096;BME280;17749;51.962;8.560;2023-04-26T09:15:40;100284.91;;;10.45;88.65
31096;BME280;17749;51.962;8.560;2023-04-26T09:18:21;100291.69;;;10.29;91.22
31096;BME280;17749;51.962;8.560;2023-04-26T09:23:29;100288.78;;;10.10;98.10
31096;BME280;17749;51.962;8.560;2023-04-26T09:26:19;100297.41;;;10.43;99.87
31096;BME280;17749;51.962;8.560;2023-04-26T09:28:47;100288.56;;;10.66;93.87
31096;BME280;17749;51.962;8.560;2023-04-26T09:31:35;100282.47;;;10.86;91.72
31096;BME280;17749;51.962;8.560;2023-04-26T09:34:03;100288.84;;;10.82;90.83
31096;BME280;17749;51.962;8.560;2023-04-26T09:36:30;100288.59;;;10.88;92.16
31096;BME280;17749;51.962;8.560;2023-04-26T09:38:57;100289.22;;;10.95;89.19
31096;BME280;17749;51.962;8.560;2023-04-26T09:41:41;100291.09;;;10.93;92.85
31096;BME280;17749;51.962;8.560;2023-04-26T09:44:22;100288.47;;;10.91;92.58
31096;BME280;17749;51.962;8.560;2023-04-26T09:46:59;100293.97;;;10.63;92.84
31096;BME280;17749;51.962;8.560;2023-04-26T09:49:30;100299.78;;;10.51;93.88
31096;BME280;17749;51.962;8.560;2023-04-26T09:52:05;100303.63;;;10.42;96.56
31096;BME280;17749;51.962;8.560;2023-04-26T09:57:16;100315.13;;;10.18;97.34
31096;BME280;17749;51.962;8.560;2023-04-26T09:59:48;100313.44;;;10.15;98.00
31096;BME280;17749;51.962;8.560;2023-04-26T10:02:25;100316.41;;;9.81;99.00
31096;BME280;17749;51.962;8.560;2023-04-26T10:04:54;100308.09;;;9.63;100.00
31096;BME280;17749;51.962;8.560;2023-04-26T10:07:23;100317.84;;;9.64;100.00
31096;BME280;17749;51.962;8.560;2023-04-26T10:09:51;100314.00;;;9.45;100.00
31096;BME280;17749;51.962;8.560;2023-04-26T10:12:19;100309.66;;;9.42;100.00
31096;BME280;17749;51.962;8.560;2023-04-26T10:14:47;100320.06;;;9.50;100.00
31096;BME280;17749;51.962;8.560;2023-04-26T10:17:14;100313.41;;;9.63;100.00
31096;BME280;17749;51.962;8.560;2023-04-26T10:19:42;100316.78;;;9.69;100.00
31096;BME280;17749;51.962;8.560;2023-04-26T10:22:20;100314.75;;;9.77;100.00
31096;BME280;17749;51.962;8.560;2023-04-26T10:24:48;100309.84;;;9.64;100.00
31096;BME280;17749;51.962;8.560;2023-04-26T10:27:16;100313.63;;;9.57;99.55
31096;BME280;17749;51.962;8.560;2023-04-26T10:30:07;100311.50;;;9.40;100.00
31096;BME280;17749;51.962;8.560;2023-04-26T10:35:33;100305.06;;;9.48;100.00
31096;BME280;17749;51.962;8.560;2023-04-26T10:45:36;100296.44;;;9.94;100.00
31096;BME280;17749;51.962;8.560;2023-04-26T10:53:25;100289.75;;;9.82;100.00
31096;BME280;17749;51.962;8.560;2023-04-26T10:55:52;100295.34;;;9.75;100.00
31096;BME280;17749;51.962;8.560;2023-04-26T10:58:30;100292.34;;;9.57;100.00
31096;BME280;17749;51.962;8.560;2023-04-26T11:01:08;100293.44;;;9.52;100.00
31096;BME280;17749;51.962;8.560;2023-04-26T11:03:59;100289.59;;;9.60;100.00
31096;BME280;17749;51.962;8.560;2023-04-26T11:06:49;100281.47;;;9.65;100.00
31096;BME280;17749;51.962;8.560;2023-04-26T11:09:37;100286.31;;;9.52;100.00
31096;BME280;17749;51.962;8.560;2023-04-26T11:12:09;100286.31;;;9.52;100.00
31096;BME280;17749;51.962;8.560;2023-04-26T11:17:05;100289.75;;;9.82;100.00
31096;BME280;17749;51.962;8.560;2023-04-26T11:19:33;100272.50;;;9.94;100.00
31096;BME280;17749;51.962;8.560;2023-04-26T11:22:01;100287.81;;;10.13;100.00
31096;BME280;17749;51.962;8.560;2023-04-26T11:24:33;100285.50;;;10.27;100.00
31096;BME280;17749;51.962;8.560;2023-04-26T11:27:08;100273.38;;;10.20;100.00
31096;BME280;17749;51.962;8.560;2023-04-26T11:29:37;100274.88;;;10.27;100.00
31096;BME280;17749;51.962;8.560;2023-04-26T11:32:04;100279.94;;;10.35;100.00
31096;BME280;17749;51.962;8.560;2023-04-26T11:34:32;100265.03;;;10.30;100.00
31096;BME280;17749;51.962;8.560;2023-04-26T11:37:04;100272.75;;;10.38;100.00
31096;BME280;17749;51.962;8.560;2023-04-26T11:39:32;100270.66;;;10.46;100.00
31096;BME280;17749;51.962;8.560;2023-04-26T11:42:09;100283.03;;;10.47;99.18
31096;BME280;17749;51.962;8.560;2023-04-26T11:44:37;100271.59;;;10.45;98.51
31096;BME280;17749;51.962;8.560;2023-04-26T11:47:05;100280.84;;;10.35;97.96
31096;BME280;17749;51.962;8.560;2023-04-26T11:49:35;100278.19;;;10.35;98.81
31096;BME280;17749;51.962;8.560;2023-04-26T11:52:03;100278.88;;;10.40;95.41
31096;BME280;17749;51.962;8.560;2023-04-26T11:54:34;100277.09;;;10.41;95.41
31096;BME280;17749;51.962;8.560;2023-04-26T11:57:15;100275.94;;;10.48;96.54
31096;BME280;17749;51.962;8.560;2023-04-26T11:59:44;100279.34;;;10.51;95.42
31096;BME280;17749;51.962;8.560;2023-04-26T12:02:14;100273.47;;;10.42;95.34
31096;BME280;17749;51.962;8.560;2023-04-26T12:04:41;100281.31;;;10.46;97.81
31096;BME280;17749;51.962;8.560;2023-04-26T12:07:10;100280.38;;;10.47;96.30
31096;BME280;17749;51.962;8.560;2023-04-26T12:09:39;100286.41;;;10.52;95.40
31096;BME280;17749;51.962;8.560;2023-04-26T12:12:10;100281.44;;;10.67;93.34
31096;BME280;17749;51.962;8.560;2023-04-26T12:14:38;100274.84;;;10.77;89.57
31096;BME280;17749;51.962;8.560;2023-04-26T12:17:06;100288.94;;;10.79;88.40
31096;BME280;17749;51.962;8.560;2023-04-26T12:19:34;100289.56;;;10.64;89.03
31096;BME280;17749;51.962;8.560;2023-04-26T12:22:05;100294.41;;;10.76;90.08
31096;BME280;17749;51.962;8.560;2023-04-26T12:24:33;100286.88;;;10.87;89.96
31096;BME280;17749;51.962;8.560;2023-04-26T12:27:03;100288.38;;;10.94;88.86
31096;BME280;17749;51.962;8.560;2023-04-26T12:29:32;100284.66;;;10.99;89.65
31096;BME280;17749;51.962;8.560;2023-04-26T12:32:00;100282.34;;;10.89;88.85
31096;BME280;17749;51.962;8.560;2023-04-26T12:34:27;100279.94;;;10.83;85.34
31096;BME280;17749;51.962;8.560;2023-04-26T12:36:54;100285.13;;;10.86;85.93
31096;BME280;17749;51.962;8.560;2023-04-26T12:39:21;100283.31;;;10.87;86.90
31096;BME280;17749;51.962;8.560;2023-04-26T12:41:48;100283.91;;;10.95;86.70
31096;BME280;17749;51.962;8.560;2023-04-26T12:44:15;100286.34;;;11.01;84.59
31096;BME280;17749;51.962;8.560;2023-04-26T12:46:44;100285.34;;;11.04;82.53
31096;BME280;17749;51.962;8.560;2023-04-26T12:49:12;100285.56;;;10.97;81.12
31096;BME280;17749;51.962;8.560;2023-04-26T12:51:39;100286.63;;;10.93;84.25
31096;BME280;17749;51.962;8.560;2023-04-26T12:54:06;100285.25;;;10.83;85.13
31096;BME280;17749;51.962;8.560;2023-04-26T12:56:33;100290.69;;;10.80;83.02
31096;BME280;17749;51.962;8.560;2023-04-26T12:59:03;100287.47;;;10.72;81.90
31096;BME280;17749;51.962;8.560;2023-04-26T13:01:30;100291.13;;;10.69;83.48
31096;BME280;17749;51.962;8.560;2023-04-26T13:03:57;100287.47;;;10.72;85.09
31096;BME280;17749;51.962;8.560;2023-04-26T13:06:26;100288.03;;;10.80;86.92
31096;BME280;17749;51.962;8.560;2023-04-26T13:08:54;100295.22;;;10.78;86.00
31096;BME280;17749;51.962;8.560;2023-04-26T13:11:21;100296.66;;;10.63;84.73
31096;BME280;17749;51.962;8.560;2023-04-26T13:13:48;100290.00;;;10.51;85.90
31096;BME280;17749;51.962;8.560;2023-04-26T13:16:15;100304.56;;;10.41;86.40
31096;BME280;17749;51.962;8.560;2023-04-26T13:18:42;100303.63;;;10.42;87.59
31096;BME280;17749;51.962;8.560;2023-04-26T13:21:09;100292.41;;;10.34;87.79
31096;BME280;17749;51.962;8.560;2023-04-26T13:23:36;100294.34;;;10.29;89.03
31096;BME280;17749;51.962;8.560;2023-04-26T13:26:03;100300.59;;;10.28;90.35
31096;BME280;17749;51.962;8.560;2023-04-26T13:28:30;100298.34;;;10.16;88.46
31096;BME280;17749;51.962;8.560;2023-04-26T13:30:57;100303.06;;;10.07;88.14
31096;BME280;17749;51.962;8.560;2023-04-26T13:33:25;100302.06;;;10.12;89.21
31096;BME280;17749;51.962;8.560;2023-04-26T13:35:52;100297.44;;;10.17;89.27
31096;BME280;17749;51.962;8.560;2023-04-26T13:38:19;100299.16;;;10.18;88.94
31096;BME280;17749;51.962;8.560;2023-04-26T13:40:46;100302.50;;;10.24;88.38
31096;BME280;17749;51.962;8.560;2023-04-26T13:43:13;100300.25;;;10.37;88.79
31096;BME280;17749;51.962;8.560;2023-04-26T13:45:40;100300.06;;;10.43;87.71
31096;BME280;17749;51.962;8.560;2023-04-26T13:48:07;100300.75;;;10.48;89.58
31096;BME280;17749;51.962;8.560;2023-04-26T13:50:36;100296.84;;;10.59;86.70
31096;BME280;17749;51.962;8.560;2023-04-26T13:53:03;100293.94;;;10.65;88.70
31096;BME280;17749;51.962;8.560;2023-04-26T13:55:30;100296.06;;;10.79;88.08
31096;BME280;17749;51.962;8.560;2023-04-26T13:57:57;100286.88;;;10.87;86.47
31096;BME280;17749;51.962;8.560;2023-04-26T14:00:24;100290.91;;;10.97;86.29
31096;BME280;17749;51.962;8.560;2023-04-26T14:02:51;100288.38;;;10.94;86.53
31096;BME280;17749;51.962;8.560;2023-04-26T14:05:20;100292.09;;;10.90;83.96
31096;BME280;17749;51.962;8.560;2023-04-26T14:07:47;100291.53;;;10.82;79.86
31096;BME280;17749;51.962;8.560;2023-04-26T14:10:14;100297.00;;;10.78;82.27
31096;BME280;17749;51.962;8.560;2023-04-26T14:12:41;100286.81;;;10.89;81.93
31096;BME280;17749;51.962;8.560;2023-04-26T14:15:08;100293.81;;;10.91;82.83
31096;BME280;17749;51.962;8.560;2023-04-26T14:17:35;100284.38;;;10.83;81.87
31096;BME280;17749;51.962;8.560;2023-04-26T14:20:03;100284.56;;;10.78;83.52
31096;BME280;17749;51.962;8.560;2023-04-26T14:22:31;100290.59;;;10.83;85.64
31096;BME280;17749;51.962;8.560;2023-04-26T14:24:57;100300.50;;;10.80;84.03
31096;BME280;17749;51.962;8.560;2023-04-26T14:27:24;100293.91;;;10.66;82.47
31096;BME280;17749;51.962;8.560;2023-04-26T14:29:51;100297.53;;;10.64;85.64
31096;BME280;17749;51.962;8.560;2023-04-26T14:32:19;100294.41;;;10.76;84.60
31096;BME280;17749;51.962;8.560;2023-04-26T14:34:46;100286.13;;;10.84;83.95
31096;BME280;17749;51.962;8.560;2023-04-26T14:37:13;100294.41;;;10.76;84.52
31096;BME280;17749;51.962;8.560;2023-04-26T14:39:41;100290.13;;;10.48;83.85
31096;BME280;17749;51.962;8.560;2023-04-26T14:42:08;100288.25;;;10.50;86.77
31096;BME280;17749;51.962;8.560;2023-04-26T14:44:37;100279.22;;;10.55;85.76
31096;BME280;17749;51.962;8.560;2023-04-26T14:47:04;100282.72;;;10.57;83.98
31096;BME280;17749;51.962;8.560;2023-04-26T14:49:31;100284.09;;;10.67;85.63
31096;BME280;17749;51.962;8.560;2023-04-26T14:51:58;100285.50;;;10.77;85.00
31096;BME280;17749;51.962;8.560;2023-04-26T14:54:25;100270.91;;;10.87;87.02
31096;BME280;17749;51.962;8.560;2023-04-26T14:56:52;100277.28;;;11.05;87.66
31096;BME280;17749;51.962;8.560;2023-04-26T14:59:19;100280.59;;;11.12;85.15
31096;BME280;17749;51.962;8.560;2023-04-26T15:01:46;100283.84;;;11.18;83.07
31096;BME280;17749;51.962;8.560;2023-04-26T15:04:14;100287.03;;;11.28;83.16
31096;BME280;17749;51.962;8.560;2023-04-26T15:06:41;100276.38;;;11.28;81.19
31096;BME280;17749;51.962;8.560;2023-04-26T15:09:08;100280.34;;;11.18;82.31
31096;BME280;17749;51.962;8.560;2023-04-26T15:11:37;100277.97;;;11.10;82.39
31096;BME280;17749;51.962;8.560;2023-04-26T15:14:03;100266.69;;;11.04;83.92
31096;BME280;17749;51.962;8.560;2023-04-26T15:16:30;100285.34;;;11.04;83.39
31096;BME280;17749;51.962;8.560;2023-04-26T15:18:57;100274.88;;;10.99;82.63
31096;BME280;17749;51.962;8.560;2023-04-26T15:21:24;100276.63;;;10.77;84.15
31096;BME280;17749;51.962;8.560;2023-04-26T15:23:54;100275.06;;;10.71;85.24
31096;BME280;17749;51.962;8.560;2023-04-26T15:26:21;100268.88;;;10.70;84.07
31096;BME280;17749;51.962;8.560;2023-04-26T15:28:48;100261.28;;;10.60;85.27
31096;BME280;17749;51.962;8.560;2023-04-26T15:31:15;100273.22;;;10.73;86.38
31096;BME280;17749;51.962;8.560;2023-04-26T15:33:43;100272.38;;;10.94;86.69
31096;BME280;17749;51.962;8.560;2023-04-26T15:36:10;100266.06;;;10.97;86.68
31096;BME280;17749;51.962;8.560;2023-04-26T15:38:36;100270.97;;;11.08;85.92
31096;BME280;17749;51.962;8.560;2023-04-26T15:41:03;100276.72;;;10.97;84.02
31096;BME280;17749;51.962;8.560;2023-04-26T15:43:30;100279.22;;;11.02;84.95
31096;BME280;17749;51.962;8.560;2023-04-26T15:45:57;100268.56;;;11.02;82.65
31096;BME280;17749;51.962;8.560;2023-04-26T15:48:24;100267.22;;;11.13;85.73
31096;BME280;17749;51.962;8.560;2023-04-26T15:50:51;100267.56;;;11.26;84.80
31096;BME280;17749;51.962;8.560;2023-04-26T15:53:22;100269.31;;;11.27;83.59
31096;BME280;17749;51.962;8.560;2023-04-26T15:55:50;100265.03;;;11.23;84.16
31096;BME280;17749;51.962;8.560;2023-04-26T15:58:16;100265.97;;;11.22;83.47
31096;BME280;17749;51.962;8.560;2023-04-26T16:00:43;100269.19;;;11.08;83.53
31096;BME280;17749;51.962;8.560;2023-04-26T16:03:10;100276.13;;;11.12;85.59
31096;BME280;17749;51.962;8.560;2023-04-26T16:05:38;100275.00;;;11.18;84.46
31096;BME280;17749;51.962;8.560;2023-04-26T16:08:05;100264.47;;;11.15;83.21
31096;BME280;17749;51.962;8.560;2023-04-26T16:10:32;100266.31;;;11.13;81.74
31096;BME280;17749;51.962;8.560;2023-04-26T16:13:00;100270.97;;;11.08;80.70
31096;BME280;17749;51.962;8.560;2023-04-26T16:15:27;100267.91;;;10.95;83.03
31096;BME280;17749;51.962;8.560;2023-04-26T16:17:54;100265.06;;;11.00;82.10
31096;BME280;17749;51.962;8.560;2023-04-26T16:20:21;100265.75;;;11.05;83.47
31096;BME280;17749;51.962;8.560;2023-04-26T16:22:48;100258.41;;;11.11;82.69
31096;BME280;17749;51.962;8.560;2023-04-26T16:25:15;100262.41;;;11.00;80.09
31096;BME280;17749;51.962;8.560;2023-04-26T16:27:42;100252.41;;;10.83;80.18
31096;BME280;17749;51.962;8.560;2023-04-26T16:30:10;100252.53;;;10.80;82.80
31096;BME280;17749;51.962;8.560;2023-04-26T16:32:37;100258.28;;;10.69;81.20
31096;BME280;17749;51.962;8.560;2023-04-26T16:35:05;100255.63;;;10.69;81.46
31096;BME280;17749;51.962;8.560;2023-04-26T16:37:32;100257.34;;;10.70;84.05
31096;BME280;17749;51.962;8.560;2023-04-26T16:39:59;100260.81;;;10.72;83.78
31096;BME280;17749;51.962;8.560;2023-04-26T16:42:28;100260.94;;;10.69;82.96
31096;BME280;17749;51.962;8.560;2023-04-26T16:44:55;100259.44;;;10.62;82.38
31096;BME280;17749;51.962;8.560;2023-04-26T16:47:22;100262.44;;;10.52;81.64
31096;BME280;17749;51.962;8.560;2023-04-26T16:49:50;100258.28;;;10.45;82.68
31096;BME280;17749;51.962;8.560;2023-04-26T16:52:17;100258.84;;;10.30;82.97
31096;BME280;17749;51.962;8.560;2023-04-26T16:54:43;100263.47;;;10.23;84.07
31096;BME280;17749;51.962;8.560;2023-04-26T16:57:10;100263.47;;;10.23;83.75
31096;BME280;17749;51.962;8.560;2023-04-26T16:59:39;100257.53;;;10.17;83.07
31096;BME280;17749;51.962;8.560;2023-04-26T17:02:05;100270.13;;;10.12;84.14
31096;BME280;17749;51.962;8.560;2023-04-26T17:04:32;100277.41;;;10.06;84.62
31096;BME280;17749;51.962;8.560;2023-04-26T17:06:59;100267.88;;;9.99;85.53
31096;BME280;17749;51.962;8.560;2023-04-26T17:09:26;100272.53;;;9.93;85.98
31096;BME280;17749;51.962;8.560;2023-04-26T17:11:53;100276.28;;;9.87;86.36
31096;BME280;17749;51.962;8.560;2023-04-26T17:14:20;100272.91;;;9.82;88.01
31096;BME280;17749;51.962;8.560;2023-04-26T17:16:47;100276.50;;;9.81;88.76
31096;BME280;17749;51.962;8.560;2023-04-26T17:19:14;100270.47;;;9.76;89.18
31096;BME280;17749;51.962;8.560;2023-04-26T17:21:41;100278.66;;;9.70;88.42
31096;BME280;17749;51.962;8.560;2023-04-26T17:24:08;100278.13;;;9.58;89.78
31096;BME280;17749;51.962;8.560;2023-04-26T17:26:35;100279.22;;;9.53;89.87
31096;BME280;17749;51.962;8.560;2023-04-26T17:29:02;100279.47;;;9.45;89.78
31096;BME280;17749;51.962;8.560;2023-04-26T17:31:29;100283.25;;;9.38;90.03
31096;BME280;17749;51.962;8.560;2023-04-26T17:33:56;100276.50;;;9.28;89.38
31096;BME280;17749;51.962;8.560;2023-04-26T17:36:23;100288.16;;;9.22;90.59
31096;BME280;17749;51.962;8.560;2023-04-26T17:38:49;100284.81;;;9.17;91.28
31096;BME280;17749;51.962;8.560;2023-04-26T17:41:16;100290.25;;;9.12;92.48
31096;BME280;17749;51.962;8.560;2023-04-26T17:43:44;100289.53;;;9.07;94.53
31096;BME280;17749;51.962;8.560;2023-04-26T17:46:11;100287.97;;;9.00;95.63
31096;BME280;17749;51.962;8.560;2023-04-26T17:48:38;100289.91;;;8.95;95.63
31096;BME280;17749;51.962;8.560;2023-04-26T17:51:05;100285.66;;;8.89;97.00
31096;BME280;17749;51.962;8.560;2023-04-26T17:53:32;100290.34;;;8.80;98.58
31096;BME280;17749;51.962;8.560;2023-04-26T17:55:59;100282.53;;;8.75;98.56
31096;BME280;17749;51.962;8.560;2023-04-26T17:58:25;100284.50;;;8.68;100.00
31096;BME280;17749;51.962;8.560;2023-04-26T18:00:52;100290.75;;;8.67;100.00
31096;BME280;17749;51.962;8.560;2023-04-26T18:03:19;100285.59;;;8.61;100.00
31096;BME280;17749;51.962;8.560;2023-04-26T18:05:47;100294.56;;;8.57;100.00
31096;BME280;17749;51.962;8.560;2023-04-26T18:08:13;100291.19;;;8.52;100.00
31096;BME280;17749;51.962;8.560;2023-04-26T18:10:40;100293.97;;;8.47;100.00
31096;BME280;17749;51.962;8.560;2023-04-26T18:13:06;100291.34;;;8.46;100.00
31096;BME280;17749;51.962;8.560;2023-04-26T18:15:33;100299.44;;;8.41;100.00
31096;BME280;17749;51.962;8.560;2023-04-26T18:18:00;100295.91;;;8.41;100.00
31096;BME280;17749;51.962;8.560;2023-04-26T18:20:31;100294.16;;;8.38;100.00